Time,TemperatureF,DewpointF,PressureIn,WindDirection,WindDirectionDegrees,WindSpeedMPH,WindSpeedGustMPH,Humidity,HourlyPrecipIn,Conditions,Clouds,dailyrainin,SolarRadiationWatts/m^2,SoftwareType,DateUTC
2013-05-20 00:00:00,71.5,31.8,29.96,SW,225,7.0,13.0,23,0.00,,---,0.00,0.00,VWS V14.01,2013-05-20 07:00:00,
2013-05-20 00:04:00,71.1,32.0,29.96,WSW,237,8.0,12.0,24,0.00,,,0.00,0,weatherlink.com 1.10,2013-05-20 07:04:00,
2013-05-20 00:15:00,70.9,32.3,29.97,SW,225,8.0,13.0,24,0.00,,---,0.00,0.00,VWS V14.01,2013-05-20 07:15:00,
2013-05-20 00:19:00,70.8,32.0,29.97,WSW,240,8.0,13.0,24,0.00,,,0.00,0,weatherlink.com 1.10,2013-05-20 07:19:00,
2013-05-20 00:30:00,70.9,32.3,29.97,SW,225,7.0,12.0,24,0.00,,---,0.00,0.00,VWS V14.01,2013-05-20 07:30:00,
2013-05-20 00:34:00,70.8,32.0,29.97,SW,228,5.0,10.0,24,0.00,,,0.00,0,weatherlink.com 1.10,2013-05-20 07:34:00,
2013-05-20 00:45:00,70.6,31.0,29.97,WSW,248,4.0,8.0,23,0.00,,---,0.00,0.00,VWS V14.01,2013-05-20 07:45:00,
2013-05-20 00:49:00,70.4,31.0,29.97,WSW,250,1.0,8.0,23,0.00,,,0.00,0,weatherlink.com 1.10,2013-05-20 07:49:00,
2013-05-20 01:00:00,70.4,29.8,29.97,WSW,248,1.0,5.0,22,0.00,,---,0.00,0.00,VWS V14.01,2013-05-20 08:00:00,
2013-05-20 01:04:00,70.3,31.0,29.97,WSW,250,0.0,3.0,23,0.00,,,0.00,0,weatherlink.com 1.10,2013-05-20 08:04:00,
2013-05-20 01:15:00,70.1,27.2,29.97,North,0,0.0,4.0,20,0.00,,---,0.00,0.00,VWS V14.01,2013-05-20 08:15:00,
2013-05-20 01:19:00,70.1,26.0,29.98,North,2,0.0,5.0,19,0.00,,,0.00,0,weatherlink.com 1.10,2013-05-20 08:19:00,
2013-05-20 01:30:00,70.2,24.7,29.98,North,0,2.0,9.0,18,0.00,,---,0.00,0.00,VWS V14.01,2013-05-20 08:30:00,
2013-05-20 01:34:00,70.6,24.0,29.98,NNE,16,1.0,9.0,17,0.00,,,0.00,0,weatherlink.com 1.10,2013-05-20 08:34:00,
2013-05-20 01:45:00,70.5,25.0,29.98,NNE,22,0.0,3.0,18,0.00,,---,0.00,0.00,VWS V14.01,2013-05-20 08:45:00,
2013-05-20 01:49:00,70.1,25.0,29.98,East,93,0.0,6.0,18,0.00,,,0.00,0,weatherlink.com 1.10,2013-05-20 08:49:00,
2013-05-20 02:00:00,70.0,24.6,29.98,East,90,0.0,6.0,18,0.00,,---,0.00,0.00,VWS V14.01,2013-05-20 09:00:00,
2013-05-20 02:04:00,69.6,24.0,29.98,NNE,33,0.0,0.0,18,0.00,,,0.00,0,weatherlink.com 1.10,2013-05-20 09:04:00,
2013-05-20 02:15:00,69.3,24.0,29.98,NE,45,0.0,1.0,18,0.00,,---,0.00,0.00,VWS V14.01,2013-05-20 09:15:00,
2013-05-20 02:19:00,68.8,23.0,29.98,NE,39,1.0,3.0,18,0.00,,,0.00,0,weatherlink.com 1.10,2013-05-20 09:19:00,
2013-05-20 02:30:00,68.8,23.6,29.99,NE,45,0.0,4.0,18,0.00,,---,0.00,0.00,VWS V14.01,2013-05-20 09:30:00,
2013-05-20 02:34:00,68.6,22.0,29.99,NNE,24,0.0,6.0,17,0.00,,,0.00,0,weatherlink.com 1.10,2013-05-20 09:34:00,
2013-05-20 02:45:00,68.6,22.1,29.99,NNE,22,1.0,6.0,17,0.00,,---,0.00,0.00,VWS V14.01,2013-05-20 09:45:00,
2013-05-20 02:49:00,68.4,22.0,29.99,NNE,25,0.0,4.0,17,0.00,,,0.00,0,weatherlink.com 1.10,2013-05-20 09:49:00,
2013-05-20 03:00:00,68.3,23.2,29.99,NE,45,0.0,4.0,18,0.00,,---,0.00,0.00,VWS V14.01,2013-05-20 10:00:00,
2013-05-20 03:04:00,67.8,23.0,30.00,NE,40,0.0,2.0,18,0.00,,,0.00,0,weatherlink.com 1.10,2013-05-20 10:04:00,
2013-05-20 03:15:00,67.6,22.6,29.99,NE,45,0.0,3.0,18,0.00,,---,0.00,0.00,VWS V14.01,2013-05-20 10:15:00,
2013-05-20 03:19:00,67.4,22.0,29.99,NE,39,0.0,3.0,18,0.00,,,0.00,0,weatherlink.com 1.10,2013-05-20 10:19:00,
2013-05-20 03:30:00,67.4,22.5,30.00,NE,45,0.0,3.0,18,0.00,,---,0.00,0.00,VWS V14.01,2013-05-20 10:30:00,
2013-05-20 03:34:00,67.3,22.0,30.00,NE,41,2.0,3.0,18,0.00,,,0.00,0,weatherlink.com 1.10,2013-05-20 10:34:00,
2013-05-20 03:45:00,67.1,22.2,30.00,NE,45,1.0,7.0,18,0.00,,---,0.00,0.00,VWS V14.01,2013-05-20 10:45:00,
2013-05-20 03:49:00,66.6,22.0,30.00,East,90,2.0,7.0,18,0.00,,,0.00,0,weatherlink.com 1.10,2013-05-20 10:49:00,
2013-05-20 04:00:00,66.6,21.8,30.00,East,90,1.0,5.0,18,0.00,,---,0.00,0.00,VWS V14.01,2013-05-20 11:00:00,
2013-05-20 04:04:00,66.3,21.0,30.01,East,90,0.0,1.0,18,0.00,,,0.00,0,weatherlink.com 1.10,2013-05-20 11:04:00,
2013-05-20 04:15:00,66.3,21.6,30.01,East,90,0.0,6.0,18,0.00,,---,0.00,0.00,VWS V14.01,2013-05-20 11:15:00,
2013-05-20 04:19:00,66.1,21.0,30.01,WNW,302,0.0,6.0,18,0.00,,,0.00,0,weatherlink.com 1.10,2013-05-20 11:19:00,
2013-05-20 04:30:00,66.2,21.5,30.02,WNW,292,0.0,6.0,18,0.00,,---,0.00,0.00,VWS V14.01,2013-05-20 11:30:00,
2013-05-20 04:34:00,66.4,21.0,30.02,NNE,26,0.0,5.0,18,0.00,,,0.00,0,weatherlink.com 1.10,2013-05-20 11:34:00,
2013-05-20 04:45:00,66.3,21.6,30.02,NNE,22,0.0,1.0,18,0.00,,---,0.00,0.00,VWS V14.01,2013-05-20 11:45:00,
2013-05-20 04:49:00,65.6,21.0,30.02,NNE,26,0.0,0.0,18,0.00,,,0.00,0,weatherlink.com 1.10,2013-05-20 11:49:00,
2013-05-20 05:00:00,65.4,20.8,30.02,NNE,22,0.0,4.0,18,0.00,,---,0.00,0.00,VWS V14.01,2013-05-20 12:00:00,
2013-05-20 05:04:00,65.0,22.0,30.02,NNE,24,0.0,0.0,19,0.00,,,0.00,0,weatherlink.com 1.10,2013-05-20 12:04:00,
2013-05-20 05:15:00,64.7,21.5,30.03,NNE,22,0.0,0.0,19,0.00,,---,0.00,0.00,VWS V14.01,2013-05-20 12:15:00,
2013-05-20 05:19:00,64.2,21.0,30.03,NNE,23,1.0,3.0,19,0.00,,,0.00,0,weatherlink.com 1.10,2013-05-20 12:19:00,
2013-05-20 05:30:00,64.3,19.9,30.03,NNE,22,1.0,9.0,18,0.00,,---,0.00,0.00,VWS V14.01,2013-05-20 12:30:00,
2013-05-20 05:34:00,65.3,21.0,30.04,NNE,18,1.0,8.0,18,0.00,,,0.00,0,weatherlink.com 1.10,2013-05-20 12:34:00,
2013-05-20 05:45:00,65.4,20.8,30.04,NNE,22,1.0,6.0,18,0.00,,---,0.00,2.00,VWS V14.01,2013-05-20 12:45:00,
2013-05-20 05:49:00,65.6,21.0,30.04,NNE,12,1.0,4.0,18,0.00,,,0.00,14,weatherlink.com 1.10,2013-05-20 12:49:00,
2013-05-20 06:00:00,65.6,22.3,30.05,NNE,22,1.0,4.0,19,0.00,,---,0.00,21.00,VWS V14.01,2013-05-20 13:00:00,
2013-05-20 06:05:00,65.5,22.0,30.05,NNE,12,0.0,0.0,19,0.00,,,0.00,44,weatherlink.com 1.10,2013-05-20 13:05:00,
2013-05-20 06:15:00,65.3,24.4,30.05,NNE,22,1.0,3.0,21,0.00,,---,0.00,56.00,VWS V14.01,2013-05-20 13:15:00,
2013-05-20 06:20:00,64.7,23.0,30.06,NNW,347,2.0,5.0,20,0.00,,,0.00,93,weatherlink.com 1.10,2013-05-20 13:20:00,
2013-05-20 06:30:00,64.4,22.5,30.07,NNW,338,2.0,5.0,20,0.00,,---,0.00,107.00,VWS V14.01,2013-05-20 13:30:00,
2013-05-20 06:35:00,64.3,23.0,30.06,NE,56,3.0,5.0,21,0.00,,,0.00,142,weatherlink.com 1.10,2013-05-20 13:35:00,
2013-05-20 06:45:00,64.5,23.7,30.07,North,0,2.0,7.0,21,0.00,,---,0.00,154.00,VWS V14.01,2013-05-20 13:45:00,
2013-05-20 06:50:00,65.0,24.0,30.07,North,358,0.0,1.0,21,0.00,,,0.00,186,weatherlink.com 1.10,2013-05-20 13:50:00,
2013-05-20 07:00:00,65.3,20.7,30.08,North,0,2.0,10.0,18,0.00,,---,0.00,201.00,VWS V14.01,2013-05-20 14:00:00,
2013-05-20 07:05:00,67.6,21.0,30.08,NNE,12,3.0,10.0,17,0.00,,,0.00,237,weatherlink.com 1.10,2013-05-20 14:05:00,
2013-05-20 07:15:00,68.0,21.6,30.09,North,0,5.0,10.0,17,0.00,,---,0.00,249.00,VWS V14.01,2013-05-20 14:15:00,
2013-05-20 07:19:00,69.3,23.0,30.09,North,354,6.0,10.0,17,0.00,,,0.00,281,weatherlink.com 1.10,2013-05-20 14:19:00,
2013-05-20 07:30:00,69.5,21.4,30.09,North,0,5.0,9.0,16,0.00,,---,0.00,299.00,VWS V14.01,2013-05-20 14:30:00,
2013-05-20 07:35:00,70.1,22.0,30.09,NNW,331,3.0,9.0,16,0.00,,,0.00,336,weatherlink.com 1.10,2013-05-20 14:35:00,
2013-05-20 07:45:00,70.3,22.0,30.09,North,0,4.0,8.0,16,0.00,,---,0.00,348.00,VWS V14.01,2013-05-20 14:45:00,
2013-05-20 07:50:00,70.9,22.0,30.09,NNE,12,3.0,6.0,16,0.00,,,0.00,387,weatherlink.com 1.10,2013-05-20 14:50:00,
2013-05-20 08:00:00,71.2,21.2,30.09,NNE,22,2.0,6.0,15,0.00,,---,0.00,398.00,VWS V14.01,2013-05-20 15:00:00,
2013-05-20 08:05:00,72.3,22.0,30.09,ENE,62,1.0,5.0,15,0.00,,,0.00,441,weatherlink.com 1.10,2013-05-20 15:05:00,
2013-05-20 08:15:00,72.5,20.6,30.09,NE,45,2.0,5.0,14,0.00,,---,0.00,452.00,VWS V14.01,2013-05-20 15:15:00,
2013-05-20 08:20:00,73.2,21.0,30.09,NE,53,0.0,5.0,14,0.00,,,0.00,490,weatherlink.com 1.10,2013-05-20 15:20:00,
2013-05-20 08:30:00,73.4,21.4,30.09,NE,45,2.0,6.0,14,0.00,,---,0.00,503.00,VWS V14.01,2013-05-20 15:30:00,
2013-05-20 08:35:00,73.9,22.0,30.09,ENE,64,2.0,6.0,14,0.00,,,0.00,541,weatherlink.com 1.10,2013-05-20 15:35:00,
2013-05-20 08:45:00,74.0,21.8,30.09,ENE,68,2.0,6.0,14,0.00,,---,0.00,553.00,VWS V14.01,2013-05-20 15:45:00,
2013-05-20 08:50:00,74.6,22.0,30.09,NE,53,5.0,9.0,14,0.00,,,0.00,589,weatherlink.com 1.10,2013-05-20 15:50:00,
2013-05-20 09:00:00,74.6,22.3,30.10,NE,45,3.0,9.0,14,0.00,,---,0.00,600.00,VWS V14.01,2013-05-20 16:00:00,
2013-05-20 09:05:00,75.1,23.0,30.09,ENE,57,3.0,6.0,14,0.00,,,0.00,638,weatherlink.com 1.10,2013-05-20 16:05:00,
2013-05-20 09:15:00,75.2,21.0,30.09,ENE,68,3.0,8.0,13,0.00,,---,0.00,646.00,VWS V14.01,2013-05-20 16:15:00,
2013-05-20 09:21:00,76.0,22.0,30.09,NE,56,3.0,6.0,13,0.00,,,0.00,686,weatherlink.com 1.10,2013-05-20 16:21:00,
2013-05-20 09:30:00,76.3,20.0,30.09,NE,45,3.0,9.0,12,0.00,,---,0.00,694.00,VWS V14.01,2013-05-20 16:30:00,
2013-05-20 09:36:00,77.0,21.0,30.09,SE,125,5.0,10.0,12,0.00,,,0.00,724,weatherlink.com 1.10,2013-05-20 16:36:00,
2013-05-20 09:45:00,77.1,20.6,30.09,East,90,5.0,10.0,12,0.00,,---,0.00,734.00,VWS V14.01,2013-05-20 16:45:00,
2013-05-20 09:51:00,77.4,21.0,30.09,ESE,110,8.0,9.0,12,0.00,,,0.00,766,weatherlink.com 1.10,2013-05-20 16:51:00,
2013-05-20 10:00:00,77.3,20.8,30.09,ESE,112,5.0,9.0,12,0.00,,---,0.00,774.00,VWS V14.01,2013-05-20 17:00:00,
2013-05-20 10:06:00,77.0,21.0,30.09,ESE,117,1.0,9.0,12,0.00,,,0.00,805,weatherlink.com 1.10,2013-05-20 17:06:00,
2013-05-20 10:15:00,77.3,20.8,30.09,East,90,4.0,10.0,12,0.00,,---,0.00,812.00,VWS V14.01,2013-05-20 17:15:00,
2013-05-20 10:21:00,77.7,21.0,30.09,SE,125,3.0,9.0,12,0.00,,,0.00,840,weatherlink.com 1.10,2013-05-20 17:21:00,
2013-05-20 10:30:00,77.8,21.2,30.08,ENE,68,4.0,10.0,12,0.00,,---,0.00,846.00,VWS V14.01,2013-05-20 17:30:00,
2013-05-20 10:36:00,78.3,22.0,30.09,NNE,12,5.0,11.0,12,0.00,,,0.00,874,weatherlink.com 1.10,2013-05-20 17:36:00,
2013-05-20 10:45:00,78.4,19.6,30.09,NNE,22,3.0,11.0,11,0.00,,---,0.00,879.00,VWS V14.01,2013-05-20 17:45:00,
2013-05-20 10:51:00,79.4,22.0,30.08,NNW,340,6.0,8.0,12,0.00,,,0.00,905,weatherlink.com 1.10,2013-05-20 17:51:00,
2013-05-20 11:00:00,79.4,20.4,30.08,East,90,3.0,10.0,11,0.00,,---,0.00,908.00,VWS V14.01,2013-05-20 18:00:00,
2013-05-20 11:06:00,79.4,20.0,30.09,ENE,73,4.0,14.0,11,0.00,,,0.00,930,weatherlink.com 1.10,2013-05-20 18:06:00,
2013-05-20 11:15:00,79.5,22.5,30.08,East,90,6.0,14.0,12,0.00,,---,0.00,933.00,VWS V14.01,2013-05-20 18:15:00,
2013-05-20 11:21:00,79.9,21.0,30.08,NE,45,2.0,12.0,11,0.00,,,0.00,953,weatherlink.com 1.10,2013-05-20 18:21:00,
2013-05-20 11:30:00,80.0,20.8,30.08,ENE,68,6.0,14.0,11,0.00,,---,0.00,955.00,VWS V14.01,2013-05-20 18:30:00,
2013-05-20 11:36:00,80.9,22.0,30.08,ESE,112,3.0,14.0,11,0.00,,,0.00,970,weatherlink.com 1.10,2013-05-20 18:36:00,
2013-05-20 11:45:00,81.2,21.8,30.07,ESE,112,2.0,13.0,11,0.00,,---,0.00,973.00,VWS V14.01,2013-05-20 18:45:00,
2013-05-20 11:51:00,81.8,22.0,30.07,ENE,62,4.0,16.0,11,0.00,,,0.00,988,weatherlink.com 1.10,2013-05-20 18:51:00,
2013-05-20 12:00:00,81.6,22.0,30.07,NE,45,6.0,17.0,11,0.00,,---,0.00,990.00,VWS V14.01,2013-05-20 19:00:00,
2013-05-20 12:06:00,81.2,22.0,30.07,NW,313,4.0,11.0,11,0.00,,,0.00,1000,weatherlink.com 1.10,2013-05-20 19:06:00,
2013-05-20 12:15:00,81.4,21.9,30.06,NNE,22,4.0,11.0,11,0.00,,---,0.00,1001.00,VWS V14.01,2013-05-20 19:15:00,
2013-05-20 12:21:00,81.2,22.0,30.06,East,91,10.0,14.0,11,0.00,,,0.00,1007,weatherlink.com 1.10,2013-05-20 19:21:00,
2013-05-20 12:30:00,81.3,21.8,30.06,East,90,7.0,14.0,11,0.00,,---,0.00,1009.00,VWS V14.01,2013-05-20 19:30:00,
2013-05-20 12:36:00,82.0,22.0,30.06,East,89,8.0,12.0,11,0.00,,,0.00,1013,weatherlink.com 1.10,2013-05-20 19:36:00,
2013-05-20 12:45:00,81.8,20.0,30.05,East,90,4.0,12.0,10,0.00,,---,0.00,1012.00,VWS V14.01,2013-05-20 19:45:00,
2013-05-20 12:51:00,82.2,20.0,30.05,NE,42,3.0,8.0,10,0.00,,,0.00,1011,weatherlink.com 1.10,2013-05-20 19:51:00,
2013-05-20 13:00:00,82.2,20.3,30.05,NNW,338,5.0,12.0,10,0.00,,---,0.00,1012.00,VWS V14.01,2013-05-20 20:00:00,
2013-05-20 13:06:00,82.2,20.0,30.05,ESE,111,4.0,13.0,10,0.00,,,0.00,1011,weatherlink.com 1.10,2013-05-20 20:06:00,
2013-05-20 13:15:00,82.2,20.3,30.05,ESE,112,8.0,15.0,10,0.00,,---,0.00,1009.00,VWS V14.01,2013-05-20 20:15:00,
2013-05-20 13:21:00,82.2,20.0,30.05,SE,129,10.0,16.0,10,0.00,,,0.00,1000,weatherlink.com 1.10,2013-05-20 20:21:00,
2013-05-20 13:30:00,82.4,20.4,30.04,ESE,112,6.0,13.0,10,0.00,,---,0.00,1000.00,VWS V14.01,2013-05-20 20:30:00,
2013-05-20 13:36:00,83.8,22.0,30.04,SSW,203,3.0,12.0,10,0.00,,,0.00,991,weatherlink.com 1.10,2013-05-20 20:36:00,
2013-05-20 13:45:00,84.3,19.4,30.04,East,90,5.0,12.0,9,0.00,,---,0.00,990.00,VWS V14.01,2013-05-20 20:45:00,
2013-05-20 13:51:00,84.9,20.0,30.04,SSE,158,7.0,12.0,9,0.00,,,0.00,977,weatherlink.com 1.10,2013-05-20 20:51:00,
2013-05-20 14:00:00,85.0,19.9,30.03,ESE,112,5.0,12.0,9,0.00,,---,0.00,974.00,VWS V14.01,2013-05-20 21:00:00,
2013-05-20 14:06:00,85.3,20.0,30.03,East,101,8.0,13.0,9,0.00,,,0.00,960,weatherlink.com 1.10,2013-05-20 21:06:00,
2013-05-20 14:15:00,85.3,20.1,30.03,SE,135,4.0,13.0,9,0.00,,---,0.00,954.00,VWS V14.01,2013-05-20 21:15:00,
2013-05-20 14:21:00,85.1,20.0,30.03,West,261,3.0,8.0,9,0.00,,,0.00,935,weatherlink.com 1.10,2013-05-20 21:21:00,
2013-05-20 14:30:00,85.5,20.3,30.02,ENE,68,3.0,9.0,9,0.00,,---,0.00,932.00,VWS V14.01,2013-05-20 21:30:00,
2013-05-20 14:36:00,86.1,18.0,30.02,ESE,117,0.0,9.0,8,0.00,,,0.00,912,weatherlink.com 1.10,2013-05-20 21:36:00,
2013-05-20 14:45:00,86.3,18.1,30.02,ESE,112,3.0,14.0,8,0.00,,---,0.00,908.00,VWS V14.01,2013-05-20 21:45:00,
2013-05-20 14:51:00,85.9,18.0,30.02,ENE,62,6.0,9.0,8,0.00,,,0.00,884,weatherlink.com 1.10,2013-05-20 21:51:00,
2013-05-20 15:00:00,85.7,17.7,30.02,ENE,68,5.0,10.0,8,0.00,,---,0.00,879.00,VWS V14.01,2013-05-20 22:00:00,
2013-05-20 15:06:00,84.9,17.0,30.02,East,101,2.0,10.0,8,0.00,,,0.00,853,weatherlink.com 1.10,2013-05-20 22:06:00,
2013-05-20 15:15:00,85.2,17.3,30.01,ENE,68,4.0,10.0,8,0.00,,---,0.00,846.00,VWS V14.01,2013-05-20 22:15:00,
2013-05-20 15:21:00,86.3,18.0,30.00,ENE,60,4.0,7.0,8,0.00,,,0.00,819,weatherlink.com 1.10,2013-05-20 22:21:00,
2013-05-20 15:30:00,86.3,18.1,30.00,NW,315,3.0,7.0,8,0.00,,---,0.00,812.00,VWS V14.01,2013-05-20 22:30:00,
2013-05-20 15:36:00,87.6,16.0,30.00,East,95,7.0,10.0,7,0.00,,,0.00,777,weatherlink.com 1.10,2013-05-20 22:36:00,
2013-05-20 15:45:00,87.3,15.8,29.99,East,90,3.0,10.0,7,0.00,,---,0.00,773.00,VWS V14.01,2013-05-20 22:45:00,
2013-05-20 15:51:00,86.3,18.0,29.99,ESE,105,8.0,9.0,8,0.00,,,0.00,738,weatherlink.com 1.10,2013-05-20 22:51:00,
2013-05-20 16:00:00,86.3,15.1,29.99,ESE,112,4.0,9.0,7,0.00,,---,0.00,733.00,VWS V14.01,2013-05-20 23:00:00,
2013-05-20 16:07:00,86.3,18.0,29.98,NE,50,2.0,7.0,8,0.00,,,0.00,694,weatherlink.com 1.10,2013-05-20 23:07:00,
2013-05-20 16:15:00,86.1,18.0,29.98,NNE,22,4.0,10.0,8,0.00,,---,0.00,690.00,VWS V14.01,2013-05-20 23:15:00,
2013-05-20 16:22:00,85.7,18.0,29.98,ESE,117,3.0,11.0,8,0.00,,,0.00,650,weatherlink.com 1.10,2013-05-20 23:22:00,
2013-05-20 16:30:00,85.8,17.8,29.98,ESE,112,5.0,11.0,8,0.00,,---,0.00,644.00,VWS V14.01,2013-05-20 23:30:00,
2013-05-20 16:37:00,85.9,18.0,29.97,ENE,64,7.0,9.0,8,0.00,,,0.00,603,weatherlink.com 1.10,2013-05-20 23:37:00,
2013-05-20 16:45:00,85.9,17.8,29.97,ENE,68,3.0,10.0,8,0.00,,---,0.00,584.00,VWS V14.01,2013-05-20 23:45:00,
2013-05-20 16:52:00,86.5,18.0,29.96,East,87,2.0,9.0,8,0.00,,,0.00,483,weatherlink.com 1.10,2013-05-20 23:52:00,
2013-05-20 17:00:00,86.3,18.1,29.96,East,90,5.0,10.0,8,0.00,,---,0.00,475.00,VWS V14.01,2013-05-21 00:00:00,
2013-05-20 17:07:00,86.1,18.0,29.96,NNW,343,2.0,8.0,8,0.00,,,0.00,508,weatherlink.com 1.10,2013-05-21 00:07:00,
2013-05-20 17:15:00,86.2,18.1,29.96,ENE,68,3.0,10.0,8,0.00,,---,0.00,500.00,VWS V14.01,2013-05-21 00:15:00,
2013-05-20 17:22:00,85.9,18.0,29.96,ESE,113,9.0,12.0,8,0.00,,,0.00,461,weatherlink.com 1.10,2013-05-21 00:22:00,
2013-05-20 17:30:00,86.0,17.9,29.96,East,90,3.0,12.0,8,0.00,,---,0.00,452.00,VWS V14.01,2013-05-21 00:30:00,
2013-05-20 17:37:00,86.5,18.0,29.95,NE,35,3.0,5.0,8,0.00,,,0.00,410,weatherlink.com 1.10,2013-05-21 00:37:00,
2013-05-20 17:45:00,86.6,15.3,29.95,NE,45,1.0,7.0,7,0.00,,---,0.00,405.00,VWS V14.01,2013-05-21 00:45:00,
2013-05-20 17:52:00,87.0,16.0,29.94,ENE,57,3.0,7.0,7,0.00,,,0.00,362,weatherlink.com 1.10,2013-05-21 00:52:00,
2013-05-20 18:00:00,86.8,15.4,29.94,East,90,4.0,10.0,7,0.00,,---,0.00,355.00,VWS V14.01,2013-05-21 01:00:00,
2013-05-20 18:07:00,85.9,15.0,29.95,ENE,76,8.0,12.0,7,0.00,,,0.00,311,weatherlink.com 1.10,2013-05-21 01:07:00,
2013-05-20 18:15:00,85.9,14.8,29.94,East,90,6.0,13.0,7,0.00,,---,0.00,305.00,VWS V14.01,2013-05-21 01:15:00,
2013-05-20 18:22:00,85.5,15.0,29.94,SE,126,8.0,10.0,7,0.00,,,0.00,265,weatherlink.com 1.10,2013-05-21 01:22:00,
2013-05-20 18:30:00,85.5,14.5,29.94,East,90,6.0,11.0,7,0.00,,---,0.00,258.00,VWS V14.01,2013-05-21 01:30:00,
2013-05-20 18:37:00,85.3,14.0,29.94,East,89,5.0,10.0,7,0.00,,,0.00,216,weatherlink.com 1.10,2013-05-21 01:37:00,
2013-05-20 18:45:00,86.6,15.3,29.95,NE,45,1.0,7.0,7,0.00,,---,0.00,405.00,VWS V14.01,2013-05-21 01:45:00,
2013-05-20 18:51:00,85.1,17.2,29.94,ESE,112,2.0,6.0,8,0.00,,---,0.00,172.00,VWS V14.01,2013-05-21 01:51:00,
2013-05-20 18:56:00,85.1,17.2,29.93,ESE,118,5.0,6.0,8,0.00,,---,0.00,151.00,VWS V14.01,2013-05-21 01:56:00,
2013-05-20 19:00:00,86.8,15.4,29.94,East,90,4.0,10.0,7,0.00,,---,0.00,355.00,VWS V14.01,2013-05-21 02:00:00,
2013-05-20 19:01:00,85.1,14.2,29.94,East,98,5.0,6.0,7,0.00,,---,0.00,134.00,VWS V14.01,2013-05-21 02:01:00,
2013-05-20 19:06:00,85.1,14.2,29.94,East,95,2.0,6.0,7,0.00,,---,0.00,121.00,VWS V14.01,2013-05-21 02:06:00,
2013-05-20 19:12:00,84.9,17.1,29.94,East,91,0.0,6.0,8,0.00,,---,0.00,100.00,VWS V14.01,2013-05-21 02:12:00,
2013-05-20 19:15:00,85.9,14.8,29.94,East,90,6.0,13.0,7,0.00,,---,0.00,305.00,VWS V14.01,2013-05-21 02:15:00,
2013-05-20 19:17:00,84.9,14.0,29.94,SSE,147,4.0,7.0,7,0.00,,---,0.00,62.00,VWS V14.01,2013-05-21 02:17:00,
2013-05-20 19:22:00,84.9,17.1,29.94,ESE,122,3.0,7.0,8,0.00,,---,0.00,49.00,VWS V14.01,2013-05-21 02:22:00,
2013-05-20 19:27:00,84.7,13.9,29.94,ESE,114,4.0,7.0,7,0.00,,---,0.00,37.00,VWS V14.01,2013-05-21 02:27:00,
2013-05-20 19:30:00,85.5,14.5,29.94,East,90,6.0,11.0,7,0.00,,---,0.00,258.00,VWS V14.01,2013-05-21 02:30:00,
2013-05-20 19:32:00,84.3,13.6,29.94,ESE,113,0.0,1.0,7,0.00,,---,0.00,37.00,VWS V14.01,2013-05-21 02:32:00,
2013-05-20 19:37:00,84.1,16.5,29.94,ESE,113,2.0,3.0,8,0.00,,---,0.00,18.00,VWS V14.01,2013-05-21 02:37:00,
2013-05-20 19:42:00,84.0,16.4,29.94,ESE,113,3.0,4.0,8,0.00,,---,0.00,11.00,VWS V14.01,2013-05-21 02:42:00,
2013-05-20 19:47:00,83.6,18.9,29.94,ESE,113,3.0,3.0,9,0.00,,---,0.00,7.00,VWS V14.01,2013-05-21 02:47:00,
2013-05-20 19:52:00,83.2,18.6,29.94,ESE,114,1.0,5.0,9,0.00,,---,0.00,5.00,VWS V14.01,2013-05-21 02:52:00,
2013-05-20 19:57:00,82.8,15.5,29.94,ESE,114,0.0,5.0,8,0.00,,---,0.00,0.00,VWS V14.01,2013-05-21 02:57:00,
2013-05-20 20:00:00,85.1,17.2,29.94,ESE,103,5.0,6.0,8,0.00,,---,0.00,134.00,VWS V14.01,2013-05-21 03:00:00,
2013-05-20 20:02:00,82.6,18.1,29.95,ESE,114,0.0,0.0,9,0.00,,---,0.00,0.00,VWS V14.01,2013-05-21 03:02:00,
2013-05-20 20:07:00,82.2,17.8,29.94,ESE,114,0.0,0.0,9,0.00,,---,0.00,0.00,VWS V14.01,2013-05-21 03:07:00,
2013-05-20 20:12:00,81.8,20.0,29.95,ESE,114,0.0,3.0,10,0.00,,---,0.00,0.00,VWS V14.01,2013-05-21 03:12:00,
2013-05-20 20:15:00,84.9,17.1,29.94,South,174,7.0,7.0,8,0.00,,---,0.00,60.00,VWS V14.01,2013-05-21 03:15:00,
2013-05-20 20:17:00,81.2,19.5,29.94,ESE,114,0.0,1.0,10,0.00,,---,0.00,0.00,VWS V14.01,2013-05-21 03:17:00,
2013-05-20 20:22:00,80.9,19.3,29.94,ESE,114,0.0,2.0,10,0.00,,---,0.00,0.00,VWS V14.01,2013-05-21 03:22:00,
2013-05-20 20:27:00,80.5,19.0,29.95,ESE,114,3.0,3.0,10,0.00,,---,0.00,0.00,VWS V14.01,2013-05-21 03:27:00,
2013-05-20 20:30:00,84.5,13.8,29.94,ESE,113,0.0,7.0,7,0.00,,---,0.00,39.00,VWS V14.01,2013-05-21 03:30:00,
2013-05-20 20:32:00,79.9,18.5,29.95,ESE,119,4.0,4.0,10,0.00,,---,0.00,0.00,VWS V14.01,2013-05-21 03:32:00,
2013-05-20 20:37:00,79.8,18.4,29.95,SSW,204,3.0,7.0,10,0.00,,---,0.00,0.00,VWS V14.01,2013-05-21 03:37:00,
2013-05-20 20:42:00,79.4,20.4,29.95,SSW,204,2.0,7.0,11,0.00,,---,0.00,0.00,VWS V14.01,2013-05-21 03:42:00,
2013-05-20 20:45:00,83.8,19.0,29.94,ESE,113,2.0,4.0,9,0.00,,---,0.00,7.00,VWS V14.01,2013-05-21 03:45:00,
2013-05-20 20:47:00,79.0,20.0,29.95,SSW,206,3.0,3.0,11,0.00,,---,0.00,0.00,VWS V14.01,2013-05-21 03:47:00,
2013-05-20 20:52:00,78.8,19.9,29.95,SSW,201,3.0,5.0,11,0.00,,---,0.00,0.00,VWS V14.01,2013-05-21 03:52:00,
2013-05-20 20:57:00,78.8,19.9,29.95,SSW,193,2.0,5.0,11,0.00,,---,0.00,0.00,VWS V14.01,2013-05-21 03:57:00,
2013-05-20 21:00:00,82.6,18.1,29.95,ESE,114,0.0,5.0,9,0.00,,---,0.00,0.00,VWS V14.01,2013-05-21 04:00:00,
2013-05-20 21:01:00,78.6,19.8,29.95,SSW,195,4.0,5.0,11,0.00,,---,0.00,0.00,VWS V14.01,2013-05-21 04:01:00,
2013-05-20 21:06:00,78.6,19.8,29.95,SSW,199,3.0,4.0,11,0.00,,---,0.00,0.00,VWS V14.01,2013-05-21 04:06:00,
2013-05-20 21:11:00,78.5,19.7,29.95,SSW,196,5.0,5.0,11,0.00,,---,0.00,0.00,VWS V14.01,2013-05-21 04:11:00,
2013-05-20 21:15:00,81.4,19.7,29.94,ESE,114,1.0,3.0,10,0.00,,---,0.00,0.00,VWS V14.01,2013-05-21 04:15:00,
2013-05-20 21:16:00,78.3,19.5,29.95,SSW,201,3.0,4.0,11,0.00,,---,0.00,0.00,VWS V14.01,2013-05-21 04:16:00,
2013-05-20 21:21:00,78.1,19.4,29.95,SSW,196,1.0,5.0,11,0.00,,---,0.00,0.00,VWS V14.01,2013-05-21 04:21:00,
2013-05-20 21:26:00,77.9,19.2,29.95,SSW,195,2.0,5.0,11,0.00,,---,0.00,0.00,VWS V14.01,2013-05-21 04:26:00,
2013-05-20 21:30:00,80.1,18.7,29.95,ESE,114,1.0,5.0,10,0.00,,---,0.00,0.00,VWS V14.01,2013-05-21 04:30:00,
2013-05-20 21:31:00,77.7,19.0,29.96,SSW,195,3.0,3.0,11,0.00,,---,0.00,0.00,VWS V14.01,2013-05-21 04:31:00,
2013-05-20 21:36:00,77.7,19.0,29.96,SSW,194,2.0,4.0,11,0.00,,---,0.00,0.00,VWS V14.01,2013-05-21 04:36:00,
2013-05-20 21:41:00,77.6,19.0,29.96,SSW,195,0.0,4.0,11,0.00,,---,0.00,0.00,VWS V14.01,2013-05-21 04:41:00,
2013-05-20 21:45:00,79.2,20.2,29.95,SSW,206,2.0,7.0,11,0.00,,---,0.00,0.00,VWS V14.01,2013-05-21 04:45:00,
2013-05-20 21:46:00,77.4,18.8,29.96,SSW,195,1.0,1.0,11,0.00,,---,0.00,0.00,VWS V14.01,2013-05-21 04:46:00,
2013-05-20 21:51:00,77.2,18.7,29.96,SSW,199,4.0,4.0,11,0.00,,---,0.00,0.00,VWS V14.01,2013-05-21 04:51:00,
2013-05-20 21:56:00,77.0,18.5,29.96,West,260,1.0,4.0,11,0.00,,---,0.00,0.00,VWS V14.01,2013-05-21 04:56:00,
2013-05-20 22:00:00,77.1,20.6,29.96,West,270,2.0,8.0,12,0.00,,---,0.00,0.00,VWS V14.01,2013-05-21 05:00:00,
2013-05-20 22:09:00,77.0,22.0,29.96,WSW,248,4.0,9.0,13,0.00,,,0.00,0,weatherlink.com 1.10,2013-05-21 05:09:00,
2013-05-20 22:15:00,77.0,24.2,29.96,WSW,248,4.0,9.0,14,0.00,,---,0.00,0.00,VWS V14.01,2013-05-21 05:15:00,
2013-05-20 22:24:00,76.8,26.0,29.96,West,262,3.0,8.0,15,0.00,,,0.00,0,weatherlink.com 1.10,2013-05-21 05:24:00,
2013-05-20 22:30:00,76.9,27.3,29.96,SW,225,4.0,8.0,16,0.00,,---,0.00,0.00,VWS V14.01,2013-05-21 05:30:00,
2013-05-20 22:39:00,76.3,27.0,29.96,SSW,212,6.0,8.0,16,0.00,,,0.00,0,weatherlink.com 1.10,2013-05-21 05:39:00,
2013-05-20 22:45:00,76.3,28.3,29.96,SW,225,5.0,8.0,17,0.00,,---,0.00,0.00,VWS V14.01,2013-05-21 05:45:00,
2013-05-20 22:54:00,75.3,27.0,29.96,SSW,210,4.0,7.0,17,0.00,,,0.00,0,weatherlink.com 1.10,2013-05-21 05:54:00,
2013-05-20 23:00:00,75.3,28.9,29.96,SW,225,5.0,10.0,18,0.00,,---,0.00,0.00,VWS V14.01,2013-05-21 06:00:00,
2013-05-20 23:09:00,75.6,29.0,29.96,SSW,210,6.0,11.0,18,0.00,,,0.00,0,weatherlink.com 1.10,2013-05-21 06:09:00,
2013-05-20 23:15:00,75.5,29.1,29.97,SW,225,6.0,11.0,18,0.00,,---,0.00,0.00,VWS V14.01,2013-05-21 06:15:00,
2013-05-20 23:24:00,75.6,26.0,29.96,SW,221,6.0,9.0,16,0.00,,,0.00,0,weatherlink.com 1.10,2013-05-21 06:24:00,
2013-05-20 23:30:00,75.6,27.8,29.96,SW,225,6.0,10.0,17,0.00,,---,0.00,0.00,VWS V14.01,2013-05-21 06:30:00,
2013-05-20 23:39:00,74.4,27.0,29.96,SSW,212,3.0,10.0,17,0.00,,,0.00,0,weatherlink.com 1.10,2013-05-21 06:39:00,
2013-05-20 23:45:00,74.5,26.9,29.96,SW,225,5.0,10.0,17,0.00,,---,0.00,0.00,VWS V14.01,2013-05-21 06:45:00,
2013-05-20 23:54:00,73.9,28.0,29.96,SW,224,7.0,9.0,18,0.00,,,0.00,0,weatherlink.com 1.10,2013-05-21 06:54:00,